Latest Weather Observations for West Wyalong

IDN60801

Issued at 2:53 am EDT Friday 29 January 2021 (issued every 10 minutes, with the page automatically refreshed every 10 minutes)

About weather observations | Map of weather stations | Latest weather observations for NSW | Other Formats
Station Details ID: 050017 Name: WEST WYALONG AIRPORT AWS Lat: -33.94 Lon: 147.20 Height: 257.0 m
Data from the previous 72 hours. | See also: Recent months at West Wyalong
Date/Time
EDT
Temp
°C
App
Temp
°C
Dew
Point
°C
Rel
Hum
%
Delta-T
°C
Wind Press
QNH
hPa
Press
MSL
hPa
Rain since
9am
mm
Dir  Spd
km/h
Gust
km/h
Spd
kts
Gust
kts
29/02:30am 15.8 14.5 14.8 94 0.6 NE 15 20 8 11 1016.0 1014.5 45.4
29/02:00am 15.7 14.0 14.6 93 0.6 ENE 17 20 9 11 1016.3 1014.8 45.2
29/01:30am 15.7 14.0 14.6 93 0.6 E 17 26 9 14 1016.8 1015.3 45.2
29/01:00am 15.8 13.4 14.3 91 0.9 ENE 20 32 11 17 1017.7 1016.2 44.8
29/12:30am 15.8 13.4 14.5 92 0.8 E 20 32 11 17 1018.2 1016.7 44.4
29/12:00am 15.8 13.4 14.5 92 0.7 E 20 28 11 15 1018.4 1016.9 44.2
 
Date/Time
EDT
Temp
°C
App
Temp
°C
Dew
Point
°C
Rel
Hum
%
Delta-T
°C
Wind Press
QNH
hPa
Press
MSL
hPa
Rain since
9am
mm
Dir  Spd
km/h
Gust
km/h
Spd
kts
Gust
kts
28/11:30pm 15.6 12.9 14.5 93 0.6 E 22 33 12 18 1018.4 1016.9 43.6
28/11:00pm 15.6 12.5 14.6 94 0.6 E 24 33 13 18 1018.2 1016.7 42.8
28/10:30pm 15.5 11.3 14.7 95 0.5 E 30 41 16 22 1017.8 1016.3 42.4
28/10:00pm 15.5 11.8 14.9 96 0.3 E 28 39 15 21 1018.2 1016.7 41.0
28/09:30pm 15.5 11.0 14.9 96 0.3 E 32 44 17 24 1018.2 1016.7 39.0
28/09:00pm 15.7 10.7 15.1 96 0.3 E 35 50 19 27 1017.7 1016.2 36.0
28/08:30pm 15.6 11.6 15.1 97 0.3 ESE 30 48 16 26 1018.2 1016.7 31.6
28/08:00pm 15.7 12.4 15.1 96 0.3 ESE 26 41 14 22 1017.7 1016.2 21.6
28/07:30pm 16.1 12.5 15.3 95 0.5 ESE 28 37 15 20 1016.7 1015.2 15.2
28/07:00pm 16.4 13.3 15.6 95 0.5 ESE 26 39 14 21 1016.4 1014.9 13.2
28/06:30pm 16.4 12.8 15.3 93 0.6 ESE 28 46 15 25 1016.2 1014.7 10.8
28/06:00pm 16.7 12.4 15.4 92 0.8 ESE 32 41 17 22 1016.1 1014.6 6.2
28/05:30pm 17.2 12.6 15.2 88 1.2 ESE 33 48 18 26 1015.9 1014.4 1.4
28/05:10pm 17.1 12.9 15.6 91 0.9 ESE 32 50 17 27 1015.6 1014.1 1.2
28/05:00pm 17.2 12.3 15.4 89 1.1 ESE 35 48 19 26 1015.7 1014.2 1.0
28/04:30pm 17.9 13.2 14.8 82 1.8 ESE 33 54 18 29 1015.7 1014.2 0.4
28/04:02pm 17.9 12.1 15.0 83 1.7 ESE 39 57 21 31 1015.8 1014.3 0.4
28/04:00pm 18.0 11.8 14.9 82 1.8 ESE 41 56 22 30 1015.8 1014.3 0.4
28/03:30pm 19.9 13.9 14.3 70 3.3 ESE 39 59 21 32 1016.0 1014.5 0.2
28/03:04pm 19.7 13.9 14.9 74 2.8 ESE 39 57 21 31 1016.1 1014.6 0.2
28/03:00pm 19.6 14.2 15.0 75 2.7 ESE 37 52 20 28 1016.2 1014.7 0.2
28/02:30pm 19.2 13.6 15.5 79 2.2 ESE 39 57 21 31 1016.4 1014.9 0.2
28/02:02pm 20.5 13.2 14.6 69 3.5 ESE 46 65 25 35 1016.4 1014.9 0.0
28/02:00pm 20.8 13.1 14.5 67 3.7 ESE 48 63 26 34 1016.4 1014.9 0.0
28/01:40pm 21.6 14.8 14.3 63 4.3 ESE 43 61 23 33 1016.5 1015.0 0.0
28/01:30pm 21.9 15.9 14.5 63 4.4 ESE 39 56 21 30 1016.6 1015.1 0.0
28/01:19pm 22.2 16.5 14.1 60 4.8 ESE 37 56 20 30 1016.9 1015.4 0.0
28/01:00pm 21.7 15.6 14.1 62 4.5 ESE 39 54 21 29 1017.2 1015.6 0.0
28/12:30pm 22.1 16.8 14.2 61 4.7 ESE 35 46 19 25 1017.2 1015.6 0.0
28/12:00pm 23.2 18.7 15.0 60 4.9 ESE 32 54 17 29 1016.9 1015.4 0.0
28/11:59am 23.4 18.9 14.9 59 5.1 ESE 32 54 17 29 1016.8 1015.3 0.0
28/11:30am 21.7 18.5 15.3 67 3.8 SE 26 33 14 18 1017.1 1015.5 0.0
28/11:00am 21.1 19.2 15.2 69 3.5 S 19 26 10 14 1016.9 1015.4 0.0
28/10:30am 24.4 20.6 13.6 51 6.4 E 26 39 14 21 1015.8 1014.3 0.0
28/10:00am 23.4 20.0 13.6 54 5.8 E 24 35 13 19 1015.2 1013.7 0.0
28/09:30am 22.1 18.1 14.0 60 4.8 E 28 37 15 20 1015.0 1013.5 0.0
28/09:00am 21.8 16.9 13.7 60 4.7 E 32 44 17 24 1015.4 1013.9 1.2
28/08:30am 20.8 16.0 14.0 65 4.0 E 32 46 17 25 1014.9 1013.4 1.2
28/08:14am 20.6 16.2 14.0 66 3.9 E 30 48 16 26 1015.0 1013.5 1.2
28/08:00am 20.1 15.7 14.0 68 3.6 E 30 43 16 23 1015.1 1013.6 1.2
28/07:30am 19.4 15.9 14.4 73 2.9 E 26 39 14 21 1015.1 1013.6 1.2
28/07:00am 20.3 16.8 13.5 65 3.9 E 24 33 13 18 1015.0 1013.5 0.0
28/06:30am 20.0 17.0 13.7 67 3.7 E 22 33 12 18 1014.4 1012.9 0.0
28/06:00am 20.3 16.5 13.5 65 3.9 E 26 33 14 18 1013.9 1012.4 0.0
28/05:30am 20.6 16.4 13.6 64 4.1 E 28 41 15 22 1013.4 1011.8 0.0
28/05:00am 20.5 16.3 13.5 64 4.1 E 28 39 15 21 1013.5 1011.9 0.0
28/04:30am 20.7 16.1 13.6 64 4.1 E 30 43 16 23 1013.2 1011.6 0.0
28/04:00am 20.8 17.0 13.5 63 4.2 E 26 35 14 19 1013.2 1011.6 0.0
28/03:30am 20.7 16.8 13.4 63 4.2 E 26 35 14 19 1013.0 1011.4 0.0
28/03:00am 20.7 17.2 13.4 63 4.2 E 24 39 13 21 1013.3 1011.7 0.0
28/02:30am 20.7 16.8 13.4 63 4.2 E 26 39 14 21 1013.7 1012.1 0.0
28/02:00am 20.5 17.0 13.5 64 4.1 E 24 32 13 17 1013.6 1012.0 0.0
28/01:30am 20.4 16.5 13.4 64 4.1 E 26 37 14 20 1013.5 1011.9 0.0
28/01:00am 20.4 16.2 13.4 64 4.1 E 28 39 15 21 1013.6 1012.0 0.0
28/12:30am 20.3 16.1 13.5 65 3.9 E 28 39 15 21 1013.8 1012.3 0.0
28/12:00am 20.4 16.2 13.4 64 4.1 E 28 43 15 23 1013.7 1012.1 0.0
 
Date/Time
EDT
Temp
°C
App
Temp
°C
Dew
Point
°C
Rel
Hum
%
Delta-T
°C
Wind Press
QNH
hPa
Press
MSL
hPa
Rain since
9am
mm
Dir  Spd
km/h
Gust
km/h
Spd
kts
Gust
kts
27/11:30pm 20.6 16.3 13.3 63 4.2 E 28 43 15 23 1013.8 1012.3 0.0
27/11:06pm 20.9 16.7 13.4 62 4.4 E 28 46 15 25 1013.6 1012.0 0.0
27/11:00pm 20.8 17.3 13.3 62 4.3 E 24 32 13 17 1013.7 1012.1 0.0
27/10:30pm 21.0 17.1 13.2 61 4.5 ESE 26 39 14 21 1013.7 1012.1 0.0
27/10:00pm 21.2 17.2 13.1 60 4.7 ESE 26 37 14 20 1013.4 1011.8 0.0
27/09:30pm 21.8 17.1 13.2 58 5.0 ESE 30 43 16 23 1012.8 1011.3 0.0
27/09:00pm 23.0 17.8 13.5 55 5.6 ESE 33 48 18 26 1012.1 1010.6 0.0
27/08:33pm 24.1 19.4 14.2 54 5.9 ESE 32 50 17 27 1011.5 1010.0 0.0
27/08:30pm 24.2 18.8 14.0 53 6.1 ESE 35 50 19 27 1011.5 1010.0 0.0
27/08:00pm 26.0 21.5 14.8 50 6.8 ESE 32 43 17 23 1011.0 1009.5 0.0
27/07:30pm 27.5 23.6 15.5 48 7.4 ESE 30 39 16 21 1010.5 1009.0 0.0
27/07:00pm 28.7 24.5 15.6 45 8.1 ESE 32 41 17 22 1010.0 1008.4 0.0
27/06:30pm 30.4 26.5 16.4 43 8.8 ESE 32 44 17 24 1009.6 1008.0 0.0
27/06:00pm 31.3 27.5 15.7 39 9.8 ESE 30 41 16 22 1009.2 1007.6 0.0
27/05:30pm 33.0 30.6 15.5 35 11.0 SE 22 32 12 17 1009.0 1007.4 0.0
27/05:00pm 33.4 30.8 15.8 34 11.1 SSE 24 35 13 19 1009.1 1007.5 0.0
27/04:30pm 33.8 31.9 15.7 33 11.4 SE 20 28 11 15 1009.3 1007.7 0.0
27/04:00pm 33.3 31.8 16.2 36 10.9 SE 19 35 10 19 1009.3 1007.7 0.0
27/03:30pm 32.1 30.0 15.1 35 10.6 ESE 20 37 11 20 1009.4 1007.8 0.0
27/03:00pm 32.5 30.4 16.3 37 10.3 ESE 22 35 12 19 1009.5 1007.9 0.0
27/02:30pm 32.5 31.1 17.9 41 9.5 SE 22 33 12 18 1009.5 1007.9 0.0
27/02:00pm 31.4 31.5 18.4 46 8.5 SE 15 24 8 13 1009.7 1008.1 0.0
27/01:30pm 31.4 32.6 19.1 48 8.1 SE 11 24 6 13 1009.9 1008.3 0.0
27/01:00pm 30.5 31.5 18.6 49 7.8 SE 11 17 6 9 1010.1 1008.5 0.0
27/12:30pm 29.7 31.4 18.5 51 7.3 SE 7 17 4 9 1010.3 1008.7 0.0
27/12:00pm 28.6 30.4 18.4 54 6.6 NW 6 9 3 5 1010.6 1009.1 0.0
27/11:30am 28.5 29.7 18.3 54 6.6 S 9 19 5 10 1010.4 1008.9 0.0
27/11:00am 28.2 28.8 18.6 56 6.2 SSE 13 20 7 11 1010.4 1008.9 0.0
27/10:30am 26.8 27.3 19.2 63 4.9 S 15 22 8 12 1010.2 1008.6 0.0
27/10:00am 25.9 26.4 19.3 67 4.3 SSE 15 22 8 12 1010.2 1008.6 0.0
27/09:30am 24.7 25.1 19.1 71 3.6 SSE 15 20 8 11 1010.2 1008.6 0.0
27/09:00am 22.8 23.9 18.8 78 2.6 S 11 15 6 8 1010.0 1008.4 8.4
27/08:30am 21.1 21.6 18.3 84 1.8 SSW 13 17 7 9 1009.7 1008.1 8.4
27/08:00am 20.1 20.8 17.9 87 1.4 SSW 11 15 6 8 1009.4 1007.8 8.4
27/07:30am 20.0 20.4 18.1 89 1.2 SSW 13 17 7 9 1009.2 1007.6 8.4
27/07:00am 20.1 21.1 18.6 91 0.9 SSW 11 17 6 9 1008.7 1007.2 8.4
27/06:30am 20.5 21.0 19.3 93 0.8 SSW 15 19 8 10 1008.3 1006.8 8.4
27/06:00am 20.8 23.0 19.5 92 0.8 S 7 9 4 5 1007.8 1006.3 8.4
27/05:30am 21.0 22.2 19.1 89 1.2 SSW 11 15 6 8 1007.4 1005.9 8.4
27/05:00am 22.1 23.5 20.4 90 1.1 SSW 13 17 7 9 1007.0 1005.5 8.4
27/04:30am 22.2 24.7 21.0 93 0.8 SW 9 11 5 6 1006.8 1005.2 8.4
27/04:00am 22.4 25.4 21.2 93 0.8 SSW 7 11 4 6 1006.5 1004.9 8.4
27/03:30am 22.6 25.0 21.6 94 0.7 S 11 15 6 8 1006.3 1004.7 8.4
27/03:00am 22.6 25.5 21.8 95 0.5 SSW 9 11 5 6 1006.2 1004.6 8.4
27/02:30am 22.6 27.1 21.6 94 0.7 CALM 0 0 0 0 1006.2 1004.6 8.4
27/02:00am 22.7 26.1 21.7 94 0.7 SE 6 9 3 5 1006.0 1004.4 8.4
27/01:30am 22.9 26.3 21.7 93 0.8 SE 6 7 3 4 1006.1 1004.5 8.4
27/01:00am 22.9 27.1 21.7 93 0.8 NE 2 7 1 4 1006.3 1004.7 8.4
27/12:30am 22.8 26.2 21.6 93 0.8 SSE 6 9 3 5 1006.1 1004.5 8.4
27/12:00am 22.9 26.4 21.9 94 0.7 ESE 6 9 3 5 1006.1 1004.5 8.4
 
Date/Time
EDT
Temp
°C
App
Temp
°C
Dew
Point
°C
Rel
Hum
%
Delta-T
°C
Wind Press
QNH
hPa
Press
MSL
hPa
Rain since
9am
mm
Dir  Spd
km/h
Gust
km/h
Spd
kts
Gust
kts
26/11:30pm 23.0 26.3 21.8 93 0.8 E 7 9 4 5 1006.2 1004.6 8.4
26/11:00pm 23.0 26.8 21.6 92 0.9 E 4 6 2 3 1006.4 1004.8 8.4
26/10:30pm 23.0 27.5 21.6 92 0.9 CALM 0 2 0 1 1006.5 1004.9 8.4
26/10:00pm 23.0 26.3 21.8 93 0.8 SSE 7 9 4 5 1006.3 1004.7 8.4
26/09:30pm 22.9 25.9 21.9 94 0.7 S 9 11 5 6 1005.8 1004.2 8.4
26/09:00pm 23.0 25.7 22.2 95 0.5 S 11 15 6 8 1005.7 1004.1 8.4
26/08:30pm 23.0 26.7 22.5 97 0.3 SSE 7 11 4 6 1005.4 1003.8 8.4
26/08:00pm 22.8 25.1 22.0 95 0.5 SSW 13 19 7 10 1005.3 1003.7 5.8
26/07:30pm 23.9 26.7 21.6 87 1.5 S 9 17 5 9 1004.4 1002.9 0.8
26/07:00pm 24.6 26.3 21.7 84 1.9 S 15 20 8 11 1004.1 1002.6 0.8
26/06:30pm 25.2 26.2 21.1 78 2.7 S 17 22 9 12 1003.3 1001.7 0.8
26/06:00pm 25.4 25.2 20.6 75 3.2 SSW 22 26 12 14 1003.0 1001.4 0.8
26/05:30pm 27.6 29.9 19.9 63 5.1 SSW 7 11 4 6 1003.2 1001.6 0.8
26/05:00pm 27.9 30.4 20.2 63 5.1 SW 7 13 4 7 1003.0 1001.4 0.8
26/04:30pm 27.4 29.8 20.0 64 4.9 SW 7 11 4 6 1003.2 1001.6 0.8
26/04:00pm 26.7 29.2 21.0 71 3.8 SSW 9 13 5 7 1003.2 1001.6 0.8
26/03:30pm 26.2 28.0 21.2 74 3.3 SW 13 17 7 9 1003.3 1001.7 0.8
26/03:00pm 25.6 27.6 21.5 78 2.8 SW 13 17 7 9 1003.4 1001.9 0.8
26/02:30pm 25.7 28.3 22.0 80 2.5 WSW 11 17 6 9 1003.7 1002.2 0.8
26/02:00pm 25.3 25.9 21.0 77 2.9 W 19 30 10 16 1003.9 1002.4 0.4
26/01:30pm 30.2 29.2 16.6 44 8.6 W 17 22 9 12 1003.4 1001.9 0.0
26/01:00pm 31.4 29.9 16.2 40 9.6 WNW 19 33 10 18 1003.5 1002.0 0.0
26/12:30pm 30.7 30.3 16.3 42 9.1 WNW 13 22 7 12 1003.9 1002.4 0.0
26/12:00pm 29.5 29.1 16.3 45 8.3 W 13 19 7 10 1004.1 1002.6 0.0
26/11:30am 28.8 28.1 16.4 47 7.8 WNW 15 22 8 12 1004.0 1002.5 0.0
26/11:00am 28.5 29.1 15.4 45 8.1 WNW 6 11 3 6 1004.0 1002.5 0.0
26/10:30am 28.3 29.8 15.6 46 7.9 S 2 9 1 5 1003.8 1002.3 0.0
26/10:00am 27.6 27.7 15.6 48 7.4 SE 9 13 5 7 1003.6 1002.1 0.0
26/09:30am 27.1 27.3 14.8 47 7.5 S 7 11 4 6 1003.8 1002.3 0.0
26/09:00am 27.4 26.7 14.4 45 7.9 SSW 11 17 6 9 1004.0 1002.5 0.0
26/08:30am 26.9 25.8 14.3 46 7.6 WSW 13 20 7 11 1004.0 1002.5 0.0
26/08:00am 26.8 24.9 14.2 46 7.6 WSW 17 20 9 11 1003.7 1002.2 0.0
26/07:30am 28.0 23.7 10.7 34 9.9 W 24 33 13 18 1003.5 1002.0 0.0
26/07:00am 28.0 25.5 11.1 35 9.8 NNW 15 24 8 13 1002.8 1001.2 0.0
26/06:30am 27.9 24.4 11.0 35 9.7 NNW 20 28 11 15 1002.5 1000.9 0.0
26/06:00am 27.9 24.4 11.0 35 9.8 NNW 20 30 11 16 1002.2 1000.6 0.0
26/05:30am 28.1 23.8 10.8 34 9.9 NNW 24 35 13 19 1001.7 1000.1 0.0
26/05:00am 28.2 23.9 10.9 34 10.0 N 24 35 13 19 1001.4 999.8 0.0
26/04:30am 28.2 24.6 10.4 33 10.2 NNW 20 32 11 17 1001.3 999.7 0.0
26/04:00am 28.3 23.7 9.6 31 10.6 N 24 35 13 19 1001.1 999.5 0.0
26/03:30am 28.3 24.3 9.1 30 10.7 N 20 28 11 15 1001.4 999.8 0.0
26/03:00am 28.6 24.0 8.3 28 11.3 N 22 30 12 16 1001.6 1000.0 0.0

Other formats

Comma delimited format used in spreadsheet applications
http://www.bom.gov.au/fwo/IDN60801/IDN60801.95709.axf

JavaScript Object Notation format (JSON) in row-major order
http://www.bom.gov.au/fwo/IDN60801/IDN60801.95709.json

Data quality

Most of these data are generated automatically and are frequently updated. Quality checks on data are not normally performed. It is possible for incorrect values to appear. Refer to information at About Latest Weather Observations and please check the disclaimer before using these data.